sensor_id;sensor_type;location;lat;lon;timestamp;P1;durP1;ratioP1;P2;durP2;ratioP2
60964;SDS011;46834;51.100;6.886;2023-03-01T00:02:03;5.07;;;3.80;;
60964;SDS011;46834;51.100;6.886;2023-03-01T00:04:29;6.47;;;3.40;;
60964;SDS011;46834;51.100;6.886;2023-03-01T00:06:55;5.23;;;3.50;;
60964;SDS011;46834;51.100;6.886;2023-03-01T00:09:21;6.67;;;3.77;;
60964;SDS011;46834;51.100;6.886;2023-03-01T00:11:47;5.23;;;3.50;;
60964;SDS011;46834;51.100;6.886;2023-03-01T00:14:13;6.80;;;4.47;;
60964;SDS011;46834;51.100;6.886;2023-03-01T00:16:42;4.80;;;3.57;;
60964;SDS011;46834;51.100;6.886;2023-03-01T00:19:10;6.37;;;4.00;;
60964;SDS011;46834;51.100;6.886;2023-03-01T00:21:39;4.80;;;3.70;;
60964;SDS011;46834;51.100;6.886;2023-03-01T00:24:05;6.13;;;3.73;;
60964;SDS011;46834;51.100;6.886;2023-03-01T00:26:31;5.93;;;3.90;;
60964;SDS011;46834;51.100;6.886;2023-03-01T00:28:57;5.97;;;3.93;;
60964;SDS011;46834;51.100;6.886;2023-03-01T00:31:26;7.20;;;3.50;;
60964;SDS011;46834;51.100;6.886;2023-03-01T00:33:55;7.30;;;3.90;;
60964;SDS011;46834;51.100;6.886;2023-03-01T00:36:25;6.60;;;3.60;;
60964;SDS011;46834;51.100;6.886;2023-03-01T00:38:54;5.60;;;3.70;;
60964;SDS011;46834;51.100;6.886;2023-03-01T00:41:20;6.20;;;3.57;;
60964;SDS011;46834;51.100;6.886;2023-03-01T00:43:47;5.63;;;3.57;;
60964;SDS011;46834;51.100;6.886;2023-03-01T00:46:16;6.20;;;4.13;;
60964;SDS011;46834;51.100;6.886;2023-03-01T00:48:45;7.17;;;4.40;;
60964;SDS011;46834;51.100;6.886;2023-03-01T00:51:12;5.93;;;3.73;;
60964;SDS011;46834;51.100;6.886;2023-03-01T00:53:41;6.87;;;4.03;;
60964;SDS011;46834;51.100;6.886;2023-03-01T00:56:12;7.67;;;4.20;;
60964;SDS011;46834;51.100;6.886;2023-03-01T00:58:39;8.23;;;4.07;;
60964;SDS011;46834;51.100;6.886;2023-03-01T01:01:09;5.53;;;4.00;;
60964;SDS011;46834;51.100;6.886;2023-03-01T01:03:50;6.10;;;4.20;;
60964;SDS011;46834;51.100;6.886;2023-03-01T01:06:30;6.13;;;3.60;;
60964;SDS011;46834;51.100;6.886;2023-03-01T01:09:07;5.27;;;3.70;;
60964;SDS011;46834;51.100;6.886;2023-03-01T01:11:41;7.60;;;4.40;;
60964;SDS011;46834;51.100;6.886;2023-03-01T01:14:13;5.20;;;3.63;;
60964;SDS011;46834;51.100;6.886;2023-03-01T01:16:39;6.70;;;3.97;;
60964;SDS011;46834;51.100;6.886;2023-03-01T01:19:05;5.27;;;3.70;;
60964;SDS011;46834;51.100;6.886;2023-03-01T01:21:31;8.53;;;4.70;;
60964;SDS011;46834;51.100;6.886;2023-03-01T01:23:57;6.23;;;4.03;;
60964;SDS011;46834;51.100;6.886;2023-03-01T01:26:25;6.80;;;4.20;;
60964;SDS011;46834;51.100;6.886;2023-03-01T01:28:53;6.13;;;4.00;;
60964;SDS011;46834;51.100;6.886;2023-03-01T01:31:21;6.03;;;4.27;;
60964;SDS011;46834;51.100;6.886;2023-03-01T01:33:48;8.53;;;4.33;;
60964;SDS011;46834;51.100;6.886;2023-03-01T01:36:15;5.90;;;3.87;;
60964;SDS011;46834;51.100;6.886;2023-03-01T01:38:41;8.43;;;4.27;;
60964;SDS011;46834;51.100;6.886;2023-03-01T01:41:07;7.00;;;4.30;;
60964;SDS011;46834;51.100;6.886;2023-03-01T01:43:39;6.33;;;3.63;;
60964;SDS011;46834;51.100;6.886;2023-03-01T01:49:03;6.73;;;3.90;;
60964;SDS011;46834;51.100;6.886;2023-03-01T01:51:39;7.70;;;4.13;;
60964;SDS011;46834;51.100;6.886;2023-03-01T01:54:13;7.40;;;3.97;;
60964;SDS011;46834;51.100;6.886;2023-03-01T01:56:48;8.77;;;4.40;;
60964;SDS011;46834;51.100;6.886;2023-03-01T01:59:21;5.80;;;4.20;;
60964;SDS011;46834;51.100;6.886;2023-03-01T02:01:51;7.57;;;4.40;;
60964;SDS011;46834;51.100;6.886;2023-03-01T02:04:18;7.30;;;4.00;;
60964;SDS011;46834;51.100;6.886;2023-03-01T02:09:43;6.63;;;4.40;;
60964;SDS011;46834;51.100;6.886;2023-03-01T02:12:13;5.73;;;4.13;;
60964;SDS011;46834;51.100;6.886;2023-03-01T02:14:42;6.23;;;4.07;;
60964;SDS011;46834;51.100;6.886;2023-03-01T02:17:08;7.73;;;4.47;;
60964;SDS011;46834;51.100;6.886;2023-03-01T02:19:43;6.83;;;3.97;;
60964;SDS011;46834;51.100;6.886;2023-03-01T02:22:41;7.53;;;4.00;;
60964;SDS011;46834;51.100;6.886;2023-03-01T02:30:47;5.37;;;4.03;;
60964;SDS011;46834;51.100;6.886;2023-03-01T02:33:35;6.93;;;4.10;;
60964;SDS011;46834;51.100;6.886;2023-03-01T02:36:04;8.10;;;4.60;;
60964;SDS011;46834;51.100;6.886;2023-03-01T02:38:38;6.33;;;4.20;;
60964;SDS011;46834;51.100;6.886;2023-03-01T02:41:05;7.23;;;4.57;;
60964;SDS011;46834;51.100;6.886;2023-03-01T02:43:35;7.93;;;4.83;;
60964;SDS011;46834;51.100;6.886;2023-03-01T02:46:06;7.90;;;4.53;;
60964;SDS011;46834;51.100;6.886;2023-03-01T02:48:40;6.63;;;4.70;;
60964;SDS011;46834;51.100;6.886;2023-03-01T02:56:37;7.37;;;4.53;;
60964;SDS011;46834;51.100;6.886;2023-03-01T02:59:03;5.10;;;3.80;;
60964;SDS011;46834;51.100;6.886;2023-03-01T03:01:30;6.60;;;4.07;;
60964;SDS011;46834;51.100;6.886;2023-03-01T03:04:02;6.93;;;4.70;;
60964;SDS011;46834;51.100;6.886;2023-03-01T03:06:34;6.63;;;4.03;;
60964;SDS011;46834;51.100;6.886;2023-03-01T03:09:01;7.10;;;4.10;;
60964;SDS011;46834;51.100;6.886;2023-03-01T03:11:29;7.03;;;4.27;;
60964;SDS011;46834;51.100;6.886;2023-03-01T03:13:55;5.77;;;4.27;;
60964;SDS011;46834;51.100;6.886;2023-03-01T03:16:22;7.03;;;4.43;;
60964;SDS011;46834;51.100;6.886;2023-03-01T03:18:49;6.63;;;4.23;;
60964;SDS011;46834;51.100;6.886;2023-03-01T03:21:15;5.90;;;4.30;;
60964;SDS011;46834;51.100;6.886;2023-03-01T03:23:41;6.93;;;4.20;;
60964;SDS011;46834;51.100;6.886;2023-03-01T03:26:07;8.40;;;4.17;;
60964;SDS011;46834;51.100;6.886;2023-03-01T03:28:33;6.43;;;4.20;;
60964;SDS011;46834;51.100;6.886;2023-03-01T03:31:00;6.13;;;3.70;;
60964;SDS011;46834;51.100;6.886;2023-03-01T03:33:29;6.83;;;4.27;;
60964;SDS011;46834;51.100;6.886;2023-03-01T03:35:56;7.13;;;4.17;;
60964;SDS011;46834;51.100;6.886;2023-03-01T03:38:21;6.87;;;4.17;;
60964;SDS011;46834;51.100;6.886;2023-03-01T03:40:48;7.10;;;4.47;;
60964;SDS011;46834;51.100;6.886;2023-03-01T03:43:36;5.57;;;3.80;;
60964;SDS011;46834;51.100;6.886;2023-03-01T03:46:06;7.03;;;4.43;;
60964;SDS011;46834;51.100;6.886;2023-03-01T03:48:36;5.83;;;4.23;;
60964;SDS011;46834;51.100;6.886;2023-03-01T03:51:12;5.87;;;4.10;;
60964;SDS011;46834;51.100;6.886;2023-03-01T03:53:40;7.00;;;4.00;;
60964;SDS011;46834;51.100;6.886;2023-03-01T03:56:07;7.63;;;4.70;;
60964;SDS011;46834;51.100;6.886;2023-03-01T03:58:33;7.40;;;4.63;;
60964;SDS011;46834;51.100;6.886;2023-03-01T04:00:59;6.40;;;4.53;;
60964;SDS011;46834;51.100;6.886;2023-03-01T04:03:26;6.20;;;4.60;;
60964;SDS011;46834;51.100;6.886;2023-03-01T04:05:54;9.87;;;4.50;;
60964;SDS011;46834;51.100;6.886;2023-03-01T04:08:23;7.50;;;4.53;;
60964;SDS011;46834;51.100;6.886;2023-03-01T04:10:50;7.37;;;4.43;;
60964;SDS011;46834;51.100;6.886;2023-03-01T04:13:19;5.70;;;4.60;;
60964;SDS011;46834;51.100;6.886;2023-03-01T04:15:50;6.50;;;4.40;;
60964;SDS011;46834;51.100;6.886;2023-03-01T04:18:18;5.47;;;4.00;;
60964;SDS011;46834;51.100;6.886;2023-03-01T04:20:46;6.30;;;4.03;;
60964;SDS011;46834;51.100;6.886;2023-03-01T04:23:16;8.77;;;4.70;;
60964;SDS011;46834;51.100;6.886;2023-03-01T04:28:41;7.17;;;4.80;;
60964;SDS011;46834;51.100;6.886;2023-03-01T04:31:14;7.93;;;4.73;;
60964;SDS011;46834;51.100;6.886;2023-03-01T04:33:52;6.27;;;4.70;;
60964;SDS011;46834;51.100;6.886;2023-03-01T04:36:24;5.67;;;4.10;;
60964;SDS011;46834;51.100;6.886;2023-03-01T04:38:54;6.40;;;4.30;;
60964;SDS011;46834;51.100;6.886;2023-03-01T04:41:22;7.00;;;4.53;;
60964;SDS011;46834;51.100;6.886;2023-03-01T04:43:49;6.57;;;4.23;;
60964;SDS011;46834;51.100;6.886;2023-03-01T04:46:16;7.67;;;4.43;;
60964;SDS011;46834;51.100;6.886;2023-03-01T04:48:45;7.43;;;4.70;;
60964;SDS011;46834;51.100;6.886;2023-03-01T04:51:12;6.37;;;4.13;;
60964;SDS011;46834;51.100;6.886;2023-03-01T04:53:38;8.13;;;4.93;;
60964;SDS011;46834;51.100;6.886;2023-03-01T04:56:05;8.03;;;4.77;;
60964;SDS011;46834;51.100;6.886;2023-03-01T04:58:31;9.50;;;4.63;;
60964;SDS011;46834;51.100;6.886;2023-03-01T05:00:57;7.73;;;4.60;;
60964;SDS011;46834;51.100;6.886;2023-03-01T05:03:23;7.30;;;4.47;;
60964;SDS011;46834;51.100;6.886;2023-03-01T05:05:50;6.57;;;4.33;;
60964;SDS011;46834;51.100;6.886;2023-03-01T05:08:18;8.57;;;4.87;;
60964;SDS011;46834;51.100;6.886;2023-03-01T05:10:50;6.70;;;4.37;;
60964;SDS011;46834;51.100;6.886;2023-03-01T05:13:18;8.30;;;5.00;;
60964;SDS011;46834;51.100;6.886;2023-03-01T05:15:48;6.77;;;4.73;;
60964;SDS011;46834;51.100;6.886;2023-03-01T05:18:22;7.27;;;4.80;;
60964;SDS011;46834;51.100;6.886;2023-03-01T05:20:53;9.27;;;4.67;;
60964;SDS011;46834;51.100;6.886;2023-03-01T05:23:21;7.20;;;4.57;;
60964;SDS011;46834;51.100;6.886;2023-03-01T05:25:48;7.53;;;4.67;;
60964;SDS011;46834;51.100;6.886;2023-03-01T05:28:14;10.07;;;4.77;;
60964;SDS011;46834;51.100;6.886;2023-03-01T05:30:40;7.93;;;4.50;;
60964;SDS011;46834;51.100;6.886;2023-03-01T05:33:06;8.30;;;5.00;;
60964;SDS011;46834;51.100;6.886;2023-03-01T05:35:42;7.53;;;4.70;;
60964;SDS011;46834;51.100;6.886;2023-03-01T05:38:10;6.00;;;4.33;;
60964;SDS011;46834;51.100;6.886;2023-03-01T05:40:40;6.30;;;4.83;;
60964;SDS011;46834;51.100;6.886;2023-03-01T05:43:08;7.50;;;4.90;;
60964;SDS011;46834;51.100;6.886;2023-03-01T05:45:35;6.57;;;4.73;;
60964;SDS011;46834;51.100;6.886;2023-03-01T05:48:03;7.13;;;4.80;;
60964;SDS011;46834;51.100;6.886;2023-03-01T05:50:40;7.23;;;4.70;;
60964;SDS011;46834;51.100;6.886;2023-03-01T05:53:10;6.43;;;4.47;;
60964;SDS011;46834;51.100;6.886;2023-03-01T05:55:40;6.77;;;4.27;;
60964;SDS011;46834;51.100;6.886;2023-03-01T05:58:09;9.97;;;4.43;;
60964;SDS011;46834;51.100;6.886;2023-03-01T06:00:41;8.57;;;5.00;;
60964;SDS011;46834;51.100;6.886;2023-03-01T06:03:09;6.03;;;4.30;;
60964;SDS011;46834;51.100;6.886;2023-03-01T06:05:38;9.93;;;5.13;;
60964;SDS011;46834;51.100;6.886;2023-03-01T06:08:05;7.20;;;4.70;;
60964;SDS011;46834;51.100;6.886;2023-03-01T06:10:32;8.83;;;4.47;;
60964;SDS011;46834;51.100;6.886;2023-03-01T06:12:57;9.90;;;5.13;;
60964;SDS011;46834;51.100;6.886;2023-03-01T06:15:23;8.30;;;4.60;;
60964;SDS011;46834;51.100;6.886;2023-03-01T06:17:50;7.27;;;5.10;;
60964;SDS011;46834;51.100;6.886;2023-03-01T06:20:20;8.97;;;4.83;;
60964;SDS011;46834;51.100;6.886;2023-03-01T06:22:49;7.53;;;4.87;;
60964;SDS011;46834;51.100;6.886;2023-03-01T06:25:20;8.97;;;4.87;;
60964;SDS011;46834;51.100;6.886;2023-03-01T06:27:49;8.87;;;5.47;;
60964;SDS011;46834;51.100;6.886;2023-03-01T06:30:16;7.60;;;5.17;;
60964;SDS011;46834;51.100;6.886;2023-03-01T06:32:43;10.40;;;5.53;;
60964;SDS011;46834;51.100;6.886;2023-03-01T06:35:10;12.53;;;5.47;;
60964;SDS011;46834;51.100;6.886;2023-03-01T06:37:42;9.77;;;5.90;;
60964;SDS011;46834;51.100;6.886;2023-03-01T06:40:08;7.70;;;4.90;;
60964;SDS011;46834;51.100;6.886;2023-03-01T06:42:36;9.07;;;5.40;;
60964;SDS011;46834;51.100;6.886;2023-03-01T06:45:05;12.40;;;5.37;;
60964;SDS011;46834;51.100;6.886;2023-03-01T06:47:32;8.70;;;5.13;;
60964;SDS011;46834;51.100;6.886;2023-03-01T06:50:02;11.40;;;5.30;;
60964;SDS011;46834;51.100;6.886;2023-03-01T06:52:29;8.53;;;5.40;;
60964;SDS011;46834;51.100;6.886;2023-03-01T06:54:54;17.37;;;6.20;;
60964;SDS011;46834;51.100;6.886;2023-03-01T06:57:20;8.93;;;5.50;;
60964;SDS011;46834;51.100;6.886;2023-03-01T06:59:46;8.63;;;5.63;;
60964;SDS011;46834;51.100;6.886;2023-03-01T07:02:13;8.43;;;5.23;;
60964;SDS011;46834;51.100;6.886;2023-03-01T07:04:40;9.73;;;5.97;;
60964;SDS011;46834;51.100;6.886;2023-03-01T07:07:06;9.53;;;5.17;;
60964;SDS011;46834;51.100;6.886;2023-03-01T07:09:32;8.43;;;5.73;;
60964;SDS011;46834;51.100;6.886;2023-03-01T07:11:57;12.30;;;5.70;;
60964;SDS011;46834;51.100;6.886;2023-03-01T07:14:23;14.30;;;5.93;;
60964;SDS011;46834;51.100;6.886;2023-03-01T07:16:50;15.50;;;5.83;;
60964;SDS011;46834;51.100;6.886;2023-03-01T07:19:19;9.33;;;5.67;;
60964;SDS011;46834;51.100;6.886;2023-03-01T07:21:46;13.43;;;5.87;;
60964;SDS011;46834;51.100;6.886;2023-03-01T07:24:12;13.23;;;5.93;;
60964;SDS011;46834;51.100;6.886;2023-03-01T07:26:38;11.77;;;5.70;;
60964;SDS011;46834;51.100;6.886;2023-03-01T07:29:05;14.67;;;6.83;;
60964;SDS011;46834;51.100;6.886;2023-03-01T07:31:32;8.93;;;6.13;;
60964;SDS011;46834;51.100;6.886;2023-03-01T07:33:59;8.50;;;5.77;;
60964;SDS011;46834;51.100;6.886;2023-03-01T07:36:24;8.10;;;5.50;;
60964;SDS011;46834;51.100;6.886;2023-03-01T07:38:50;18.77;;;6.17;;
60964;SDS011;46834;51.100;6.886;2023-03-01T07:41:17;14.43;;;6.33;;
60964;SDS011;46834;51.100;6.886;2023-03-01T07:43:42;10.10;;;5.90;;
60964;SDS011;46834;51.100;6.886;2023-03-01T07:46:08;8.87;;;5.77;;
60964;SDS011;46834;51.100;6.886;2023-03-01T07:48:34;13.07;;;5.97;;
60964;SDS011;46834;51.100;6.886;2023-03-01T07:51:00;9.67;;;5.87;;
60964;SDS011;46834;51.100;6.886;2023-03-01T07:53:28;9.17;;;5.43;;
60964;SDS011;46834;51.100;6.886;2023-03-01T07:56:02;11.43;;;5.87;;
60964;SDS011;46834;51.100;6.886;2023-03-01T07:58:33;8.90;;;5.87;;
60964;SDS011;46834;51.100;6.886;2023-03-01T08:01:01;8.20;;;5.40;;
60964;SDS011;46834;51.100;6.886;2023-03-01T08:03:28;9.60;;;6.03;;
60964;SDS011;46834;51.100;6.886;2023-03-01T08:05:54;13.23;;;6.23;;
60964;SDS011;46834;51.100;6.886;2023-03-01T08:08:20;12.17;;;6.47;;
60964;SDS011;46834;51.100;6.886;2023-03-01T08:10:46;11.33;;;6.33;;
60964;SDS011;46834;51.100;6.886;2023-03-01T08:13:12;8.70;;;5.73;;
60964;SDS011;46834;51.100;6.886;2023-03-01T08:15:37;9.27;;;5.77;;
60964;SDS011;46834;51.100;6.886;2023-03-01T08:18:03;9.87;;;6.20;;
60964;SDS011;46834;51.100;6.886;2023-03-01T08:20:29;11.23;;;6.30;;
60964;SDS011;46834;51.100;6.886;2023-03-01T08:22:54;10.17;;;5.97;;
60964;SDS011;46834;51.100;6.886;2023-03-01T08:25:22;7.73;;;5.60;;
60964;SDS011;46834;51.100;6.886;2023-03-01T08:27:48;16.30;;;9.67;;
60964;SDS011;46834;51.100;6.886;2023-03-01T08:30:14;10.57;;;7.07;;
60964;SDS011;46834;51.100;6.886;2023-03-01T08:32:40;11.40;;;6.93;;
60964;SDS011;46834;51.100;6.886;2023-03-01T08:35:06;11.10;;;6.27;;
60964;SDS011;46834;51.100;6.886;2023-03-01T08:37:32;12.30;;;6.67;;
60964;SDS011;46834;51.100;6.886;2023-03-01T08:39:58;11.10;;;6.50;;
60964;SDS011;46834;51.100;6.886;2023-03-01T08:42:25;14.23;;;9.63;;
60964;SDS011;46834;51.100;6.886;2023-03-01T08:44:51;12.00;;;7.47;;
60964;SDS011;46834;51.100;6.886;2023-03-01T08:47:17;12.20;;;8.32;;
60964;SDS011;46834;51.100;6.886;2023-03-01T08:49:43;12.00;;;7.20;;
60964;SDS011;46834;51.100;6.886;2023-03-01T08:52:09;10.20;;;6.63;;
60964;SDS011;46834;51.100;6.886;2023-03-01T08:54:35;13.73;;;9.02;;
60964;SDS011;46834;51.100;6.886;2023-03-01T08:57:01;9.97;;;7.20;;
60964;SDS011;46834;51.100;6.886;2023-03-01T08:59:28;10.20;;;6.57;;
60964;SDS011;46834;51.100;6.886;2023-03-01T09:01:54;8.27;;;6.00;;
60964;SDS011;46834;51.100;6.886;2023-03-01T09:04:21;8.63;;;5.50;;
60964;SDS011;46834;51.100;6.886;2023-03-01T09:06:47;11.98;;;7.60;;
60964;SDS011;46834;51.100;6.886;2023-03-01T09:09:14;10.53;;;7.07;;
60964;SDS011;46834;51.100;6.886;2023-03-01T09:11:43;8.93;;;5.50;;
60964;SDS011;46834;51.100;6.886;2023-03-01T09:14:14;10.10;;;6.13;;
60964;SDS011;46834;51.100;6.886;2023-03-01T09:16:40;7.80;;;5.43;;
60964;SDS011;46834;51.100;6.886;2023-03-01T09:19:07;8.73;;;5.90;;
60964;SDS011;46834;51.100;6.886;2023-03-01T09:21:32;8.70;;;5.70;;
60964;SDS011;46834;51.100;6.886;2023-03-01T09:23:58;10.97;;;5.93;;
60964;SDS011;46834;51.100;6.886;2023-03-01T09:26:24;8.33;;;5.33;;
60964;SDS011;46834;51.100;6.886;2023-03-01T09:28:51;11.35;;;7.10;;
60964;SDS011;46834;51.100;6.886;2023-03-01T09:31:20;12.52;;;7.72;;
60964;SDS011;46834;51.100;6.886;2023-03-01T09:33:50;9.70;;;6.37;;
60964;SDS011;46834;51.100;6.886;2023-03-01T09:36:19;7.77;;;5.40;;
60964;SDS011;46834;51.100;6.886;2023-03-01T09:38:48;9.77;;;5.27;;
60964;SDS011;46834;51.100;6.886;2023-03-01T09:43:51;8.67;;;5.37;;
60964;SDS011;46834;51.100;6.886;2023-03-01T09:46:24;7.73;;;5.07;;
60964;SDS011;46834;51.100;6.886;2023-03-01T09:48:54;7.93;;;4.97;;
60964;SDS011;46834;51.100;6.886;2023-03-01T09:51:27;7.67;;;4.90;;
60964;SDS011;46834;51.100;6.886;2023-03-01T09:53:58;7.57;;;4.63;;
60964;SDS011;46834;51.100;6.886;2023-03-01T09:59:31;9.80;;;5.20;;
60964;SDS011;46834;51.100;6.886;2023-03-01T10:02:24;6.17;;;4.77;;
60964;SDS011;46834;51.100;6.886;2023-03-01T10:07:52;6.03;;;4.47;;
60964;SDS011;46834;51.100;6.886;2023-03-01T10:10:39;10.27;;;7.55;;
60964;SDS011;46834;51.100;6.886;2023-03-01T10:13:23;12.88;;;7.63;;
60964;SDS011;46834;51.100;6.886;2023-03-01T10:16:39;12.50;;;8.20;;
60964;SDS011;46834;51.100;6.886;2023-03-01T10:19:20;8.63;;;6.00;;
60964;SDS011;46834;51.100;6.886;2023-03-01T10:22:04;8.37;;;5.23;;
60964;SDS011;46834;51.100;6.886;2023-03-01T10:24:56;7.43;;;5.33;;
60964;SDS011;46834;51.100;6.886;2023-03-01T10:30:17;8.00;;;4.93;;
60964;SDS011;46834;51.100;6.886;2023-03-01T10:33:07;8.40;;;4.90;;
60964;SDS011;46834;51.100;6.886;2023-03-01T10:36:01;8.80;;;5.33;;
60964;SDS011;46834;51.100;6.886;2023-03-01T10:38:27;7.10;;;5.13;;
60964;SDS011;46834;51.100;6.886;2023-03-01T10:41:13;6.77;;;4.50;;
60964;SDS011;46834;51.100;6.886;2023-03-01T10:46:21;5.70;;;4.43;;
60964;SDS011;46834;51.100;6.886;2023-03-01T10:51:46;6.97;;;4.43;;
60964;SDS011;46834;51.100;6.886;2023-03-01T10:54:19;7.13;;;5.00;;
60964;SDS011;46834;51.100;6.886;2023-03-01T10:57:00;9.23;;;6.07;;
60964;SDS011;46834;51.100;6.886;2023-03-01T10:59:33;7.97;;;5.30;;
60964;SDS011;46834;51.100;6.886;2023-03-01T11:05:31;7.97;;;5.33;;
60964;SDS011;46834;51.100;6.886;2023-03-01T11:07:47;6.67;;;4.93;;
60964;SDS011;46834;51.100;6.886;2023-03-01T11:10:26;6.67;;;4.43;;
60964;SDS011;46834;51.100;6.886;2023-03-01T11:13:07;7.40;;;4.83;;
60964;SDS011;46834;51.100;6.886;2023-03-01T11:15:40;9.75;;;7.18;;
60964;SDS011;46834;51.100;6.886;2023-03-01T11:18:20;8.57;;;5.80;;
60964;SDS011;46834;51.100;6.886;2023-03-01T11:20:48;7.80;;;5.07;;
60964;SDS011;46834;51.100;6.886;2023-03-01T11:23:19;7.50;;;5.03;;
60964;SDS011;46834;51.100;6.886;2023-03-01T11:26:05;7.90;;;4.83;;
60964;SDS011;46834;51.100;6.886;2023-03-01T11:28:34;6.77;;;4.20;;
60964;SDS011;46834;51.100;6.886;2023-03-01T11:31:09;10.32;;;7.00;;
60964;SDS011;46834;51.100;6.886;2023-03-01T11:36:26;6.87;;;4.80;;
60964;SDS011;46834;51.100;6.886;2023-03-01T11:38:54;7.30;;;5.07;;
60964;SDS011;46834;51.100;6.886;2023-03-01T11:41:31;11.55;;;7.40;;
60964;SDS011;46834;51.100;6.886;2023-03-01T11:44:02;11.13;;;5.80;;
60964;SDS011;46834;51.100;6.886;2023-03-01T11:47:17;11.07;;;6.32;;
60964;SDS011;46834;51.100;6.886;2023-03-01T11:53:25;11.00;;;5.72;;
60964;SDS011;46834;51.100;6.886;2023-03-01T11:56:29;6.75;;;4.60;;
60964;SDS011;46834;51.100;6.886;2023-03-01T12:05:01;9.25;;;4.40;;
60964;SDS011;46834;51.100;6.886;2023-03-01T12:20:20;6.78;;;4.65;;
60964;SDS011;46834;51.100;6.886;2023-03-01T12:23:19;7.55;;;4.75;;
60964;SDS011;46834;51.100;6.886;2023-03-01T12:26:13;5.78;;;4.22;;
60964;SDS011;46834;51.100;6.886;2023-03-01T12:28:59;7.82;;;4.57;;
60964;SDS011;46834;51.100;6.886;2023-03-01T12:37:38;6.38;;;4.78;;
60964;SDS011;46834;51.100;6.886;2023-03-01T12:40:26;6.72;;;4.70;;
60964;SDS011;46834;51.100;6.886;2023-03-01T12:45:48;7.55;;;5.03;;
60964;SDS011;46834;51.100;6.886;2023-03-01T12:51:42;5.82;;;4.32;;
60964;SDS011;46834;51.100;6.886;2023-03-01T12:54:33;8.52;;;4.63;;
60964;SDS011;46834;51.100;6.886;2023-03-01T12:57:37;13.48;;;7.47;;
60964;SDS011;46834;51.100;6.886;2023-03-01T13:00:10;7.50;;;5.50;;
60964;SDS011;46834;51.100;6.886;2023-03-01T13:06:01;8.75;;;5.10;;
60964;SDS011;46834;51.100;6.886;2023-03-01T13:08:49;10.32;;;4.78;;
60964;SDS011;46834;51.100;6.886;2023-03-01T13:11:21;10.43;;;4.60;;
60964;SDS011;46834;51.100;6.886;2023-03-01T13:13:49;9.93;;;4.60;;
60964;SDS011;46834;51.100;6.886;2023-03-01T13:16:59;7.45;;;4.50;;
60964;SDS011;46834;51.100;6.886;2023-03-01T13:19:21;5.30;;;3.85;;
60964;SDS011;46834;51.100;6.886;2023-03-01T13:21:54;7.28;;;4.35;;
60964;SDS011;46834;51.100;6.886;2023-03-01T13:29:32;7.47;;;4.13;;
60964;SDS011;46834;51.100;6.886;2023-03-01T13:32:23;9.75;;;4.40;;
60964;SDS011;46834;51.100;6.886;2023-03-01T13:37:43;5.85;;;4.00;;
60964;SDS011;46834;51.100;6.886;2023-03-01T13:42:50;7.15;;;4.00;;
60964;SDS011;46834;51.100;6.886;2023-03-01T13:45:22;7.05;;;4.07;;
60964;SDS011;46834;51.100;6.886;2023-03-01T13:48:08;10.10;;;5.90;;
60964;SDS011;46834;51.100;6.886;2023-03-01T13:50:48;7.90;;;4.97;;
60964;SDS011;46834;51.100;6.886;2023-03-01T13:53:28;8.00;;;5.10;;
60964;SDS011;46834;51.100;6.886;2023-03-01T13:56:02;5.88;;;4.43;;
60964;SDS011;46834;51.100;6.886;2023-03-01T13:58:33;13.27;;;4.25;;
60964;SDS011;46834;51.100;6.886;2023-03-01T14:03:50;6.30;;;3.88;;
60964;SDS011;46834;51.100;6.886;2023-03-01T14:06:23;8.48;;;3.80;;
60964;SDS011;46834;51.100;6.886;2023-03-01T14:09:02;7.90;;;3.92;;
60964;SDS011;46834;51.100;6.886;2023-03-01T14:20:26;10.52;;;4.20;;
60964;SDS011;46834;51.100;6.886;2023-03-01T14:22:58;9.63;;;4.65;;
60964;SDS011;46834;51.100;6.886;2023-03-01T14:25:34;9.27;;;4.00;;
60964;SDS011;46834;51.100;6.886;2023-03-01T14:30:55;8.48;;;4.00;;
60964;SDS011;46834;51.100;6.886;2023-03-01T14:33:35;6.93;;;3.92;;
60964;SDS011;46834;51.100;6.886;2023-03-01T14:36:03;7.90;;;3.97;;
60964;SDS011;46834;51.100;6.886;2023-03-01T14:38:33;5.93;;;4.10;;
60964;SDS011;46834;51.100;6.886;2023-03-01T14:43:44;5.60;;;4.13;;
60964;SDS011;46834;51.100;6.886;2023-03-01T14:46:34;7.75;;;4.13;;
60964;SDS011;46834;51.100;6.886;2023-03-01T14:49:10;6.07;;;4.18;;
60964;SDS011;46834;51.100;6.886;2023-03-01T14:51:45;11.85;;;4.05;;
60964;SDS011;46834;51.100;6.886;2023-03-01T14:54:27;6.50;;;4.30;;
60964;SDS011;46834;51.100;6.886;2023-03-01T14:57:05;5.50;;;4.05;;
60964;SDS011;46834;51.100;6.886;2023-03-01T14:59:46;7.75;;;4.18;;
60964;SDS011;46834;51.100;6.886;2023-03-01T15:02:16;5.88;;;4.18;;
60964;SDS011;46834;51.100;6.886;2023-03-01T15:04:52;8.90;;;4.10;;
60964;SDS011;46834;51.100;6.886;2023-03-01T15:07:22;12.13;;;4.18;;
60964;SDS011;46834;51.100;6.886;2023-03-01T15:09:59;6.20;;;4.15;;
60964;SDS011;46834;51.100;6.886;2023-03-01T15:14:57;5.15;;;3.65;;
60964;SDS011;46834;51.100;6.886;2023-03-01T15:17:28;7.32;;;3.90;;
60964;SDS011;46834;51.100;6.886;2023-03-01T15:20:04;5.78;;;3.80;;
60964;SDS011;46834;51.100;6.886;2023-03-01T15:22:43;6.32;;;3.95;;
60964;SDS011;46834;51.100;6.886;2023-03-01T15:25:20;11.23;;;4.32;;
60964;SDS011;46834;51.100;6.886;2023-03-01T15:27:51;9.07;;;3.92;;
60964;SDS011;46834;51.100;6.886;2023-03-01T15:30:24;5.97;;;3.80;;
60964;SDS011;46834;51.100;6.886;2023-03-01T15:33:19;9.57;;;4.18;;
60964;SDS011;46834;51.100;6.886;2023-03-01T15:35:48;5.97;;;3.92;;
60964;SDS011;46834;51.100;6.886;2023-03-01T15:41:22;11.75;;;4.05;;
60964;SDS011;46834;51.100;6.886;2023-03-01T15:43:57;9.43;;;4.18;;
60964;SDS011;46834;51.100;6.886;2023-03-01T15:46:29;5.63;;;4.03;;
60964;SDS011;46834;51.100;6.886;2023-03-01T15:49:02;6.18;;;3.80;;
60964;SDS011;46834;51.100;6.886;2023-03-01T15:51:49;5.00;;;2.90;;
60964;SDS011;46834;51.100;6.886;2023-03-01T15:54:19;7.13;;;3.88;;
60964;SDS011;46834;51.100;6.886;2023-03-01T15:56:48;7.30;;;4.18;;
60964;SDS011;46834;51.100;6.886;2023-03-01T15:59:15;7.97;;;4.10;;
60964;SDS011;46834;51.100;6.886;2023-03-01T16:01:42;5.88;;;3.45;;
60964;SDS011;46834;51.100;6.886;2023-03-01T16:04:13;4.10;;;3.33;;
60964;SDS011;46834;51.100;6.886;2023-03-01T16:06:52;5.82;;;3.55;;
60964;SDS011;46834;51.100;6.886;2023-03-01T16:09:27;6.78;;;3.53;;
60964;SDS011;46834;51.100;6.886;2023-03-01T16:11:53;7.18;;;3.80;;
60964;SDS011;46834;51.100;6.886;2023-03-01T16:14:19;5.07;;;3.47;;
60964;SDS011;46834;51.100;6.886;2023-03-01T16:16:50;4.90;;;3.33;;
60964;SDS011;46834;51.100;6.886;2023-03-01T16:19:17;5.18;;;3.28;;
60964;SDS011;46834;51.100;6.886;2023-03-01T16:21:43;4.90;;;3.22;;
60964;SDS011;46834;51.100;6.886;2023-03-01T16:24:11;5.07;;;3.97;;
60964;SDS011;46834;51.100;6.886;2023-03-01T16:26:38;6.15;;;3.88;;
60964;SDS011;46834;51.100;6.886;2023-03-01T16:29:03;5.05;;;3.45;;
60964;SDS011;46834;51.100;6.886;2023-03-01T16:31:33;5.47;;;4.03;;
60964;SDS011;46834;51.100;6.886;2023-03-01T16:33:59;13.20;;;3.95;;
60964;SDS011;46834;51.100;6.886;2023-03-01T16:36:25;4.53;;;3.47;;
60964;SDS011;46834;51.100;6.886;2023-03-01T16:38:53;5.30;;;3.55;;
60964;SDS011;46834;51.100;6.886;2023-03-01T16:41:23;5.20;;;3.40;;
60964;SDS011;46834;51.100;6.886;2023-03-01T16:43:49;5.28;;;3.60;;
60964;SDS011;46834;51.100;6.886;2023-03-01T16:46:17;6.93;;;3.55;;
60964;SDS011;46834;51.100;6.886;2023-03-01T16:48:46;6.97;;;3.80;;
60964;SDS011;46834;51.100;6.886;2023-03-01T16:51:12;4.72;;;3.38;;
60964;SDS011;46834;51.100;6.886;2023-03-01T16:53:39;5.43;;;3.83;;
60964;SDS011;46834;51.100;6.886;2023-03-01T16:56:06;6.97;;;3.70;;
60964;SDS011;46834;51.100;6.886;2023-03-01T16:58:35;5.67;;;3.80;;
60964;SDS011;46834;51.100;6.886;2023-03-01T17:01:09;7.63;;;4.43;;
60964;SDS011;46834;51.100;6.886;2023-03-01T17:03:39;7.00;;;3.50;;